Time;durP1;ratioP1;P1;durP2;ratioP2;P2;SDS_P1;SDS_P2;PMS_P1;PMS_P2;Temp;Humidity;BMP_temperature;BMP_pressure;BME280_temperature;BME280_humidity;BME280_pressure;Samples;Min_cycle;Max_cycle;Signal;HPM_P1;HPM_P2
2024/01/28 00:00:30;;;;;;;0.80;0.80;;;;;;;4.66;99.27;101760.94;5065725;28;20020;-63
2024/01/28 00:02:57;;;;;;;0.43;0.43;;;;;;;4.59;99.08;101764.06;5065484;28;20045;-64
2024/01/28 00:05:23;;;;;;;0.40;0.40;;;;;;;4.57;98.77;101770.84;5065706;28;20036;-64
2024/01/28 00:07:48;;;;;;;0.50;0.50;;;;;;;4.52;98.76;101773.22;5065476;28;20025;-64
2024/01/28 00:10:14;;;;;;;2.58;2.20;;;;;;;4.51;98.19;101780.88;5063730;28;20025;-64
2024/01/28 00:15:10;;;;;;;1.02;1.02;;;;;;;4.50;98.68;101774.00;4983834;28;20059;-65
2024/01/28 00:17:36;;;;;;;0.40;0.40;;;;;;;4.46;98.66;101784.16;5027935;23;20315;-63
2024/01/28 00:20:05;;;;;;;1.63;1.52;;;;;;;4.50;98.80;101790.31;5063671;23;20052;-66
2024/01/28 00:22:30;;;;;;;0.50;0.50;;;;;;;4.46;98.79;101789.31;5065797;23;20111;-65
2024/01/28 00:24:56;;;;;;;0.40;0.40;;;;;;;4.42;98.95;101777.16;5076295;23;21227;-65
2024/01/28 00:27:21;;;;;;;0.40;0.40;;;;;;;4.47;98.75;101791.06;5069381;23;20053;-64
2024/01/28 00:32:29;;;;;;;0.50;0.50;;;;;;;4.37;98.83;101773.53;5077313;23;20045;-63
2024/01/28 00:34:55;;;;;;;0.45;0.45;;;;;;;4.45;98.79;101786.69;5063261;28;20031;-63
2024/01/28 00:37:21;;;;;;;0.40;0.40;;;;;;;4.44;98.84;101785.78;5046829;28;20096;-63
2024/01/28 00:39:46;;;;;;;0.50;0.50;;;;;;;4.45;99.15;101781.53;5065128;28;20032;-63
2024/01/28 00:42:12;;;;;;;0.50;0.50;;;;;;;4.47;98.91;101782.50;5073236;23;20049;-63
2024/01/28 00:44:37;;;;;;;0.50;0.50;;;;;;;4.46;98.94;101783.28;5066370;23;20049;-63
2024/01/28 00:47:03;;;;;;;0.40;0.40;;;;;;;4.39;98.80;101774.47;5044976;28;20050;-63
2024/01/28 00:49:31;;;;;;;0.63;0.63;;;;;;;4.35;98.64;101777.72;5044956;28;20069;-63
2024/01/28 00:51:56;;;;;;;0.57;0.57;;;;;;;4.31;98.31;101779.28;5044917;28;20064;-64
2024/01/28 00:54:23;;;;;;;0.50;0.50;;;;;;;4.24;98.63;101764.44;5027214;28;20422;-64
2024/01/28 00:56:48;;;;;;;0.68;0.68;;;;;;;4.22;98.34;101774.66;5044574;28;20536;-62
2024/01/28 00:59:13;;;;;;;0.60;0.60;;;;;;;4.26;98.75;101779.94;5044877;28;20496;-63
2024/01/28 01:01:39;;;;;;;0.50;0.50;;;;;;;4.25;98.75;101783.34;5044151;28;20041;-64
2024/01/28 01:04:05;;;;;;;0.40;0.40;;;;;;;4.20;98.68;101781.44;5026806;28;20034;-63
2024/01/28 01:06:30;;;;;;;0.40;0.40;;;;;;;4.24;98.71;101789.28;5057897;23;20060;-62
2024/01/28 01:08:56;;;;;;;0.50;0.50;;;;;;;4.20;98.94;101780.56;5053439;23;20073;-63
2024/01/28 01:11:21;;;;;;;0.60;0.60;;;;;;;4.21;99.03;101785.78;5064312;28;20049;-63
2024/01/28 01:13:50;;;;;;;0.40;0.40;;;;;;;4.25;99.12;101802.19;5070214;23;20106;-63
2024/01/28 01:16:16;;;;;;;0.40;0.40;;;;;;;4.15;99.27;101790.69;5071043;23;20041;-63
2024/01/28 01:18:41;;;;;;;0.40;0.40;;;;;;;4.24;99.27;101791.84;5062455;28;20116;-63
2024/01/28 01:21:06;;;;;;;0.40;0.40;;;;;;;4.26;99.27;101793.69;5063437;28;20025;-63
2024/01/28 01:23:32;;;;;;;0.50;0.50;;;;;;;4.21;98.99;101800.31;5064076;28;20048;-63
2024/01/28 01:25:57;;;;;;;0.40;0.40;;;;;;;4.27;98.85;101807.38;5064145;28;20474;-63
2024/01/28 01:28:24;;;;;;;0.40;0.40;;;;;;;4.27;98.94;101802.25;5064404;28;20024;-63
2024/01/28 01:30:49;;;;;;;0.50;0.50;;;;;;;4.28;99.26;101804.03;5064407;28;20389;-63
2024/01/28 01:33:15;;;;;;;0.43;0.43;;;;;;;4.26;99.32;101805.66;5064557;28;20021;-63
2024/01/28 01:35:40;;;;;;;1.25;1.25;;;;;;;4.33;99.23;101805.06;5064081;28;20076;-63
2024/01/28 01:38:06;;;;;;;0.50;0.50;;;;;;;4.32;99.35;101813.59;5064524;28;20040;-63
2024/01/28 01:40:31;;;;;;;0.50;0.50;;;;;;;4.29;98.79;101798.94;5064242;28;20029;-63
2024/01/28 01:42:56;;;;;;;1.45;1.35;;;;;;;4.24;98.63;101796.97;5046387;28;20021;-63
2024/01/28 01:45:22;;;;;;;4.30;4.00;;;;;;;4.16;98.81;101796.69;5064442;28;20025;-62
2024/01/28 01:47:48;;;;;;;0.40;0.40;;;;;;;4.15;98.95;101798.38;5046719;28;20040;-63
2024/01/28 01:50:13;;;;;;;0.65;0.63;;;;;;;4.13;99.10;101807.72;5046385;28;20025;-63
2024/01/28 01:52:44;;;;;;;0.40;0.40;;;;;;;4.15;98.99;101800.97;5046396;28;20021;-62
2024/01/28 01:55:10;;;;;;;0.50;0.50;;;;;;;4.12;99.29;101790.53;5064323;28;20025;-62
2024/01/28 01:57:37;;;;;;;0.50;0.50;;;;;;;4.17;99.20;101801.88;5064377;28;20021;-62
2024/01/28 02:00:03;;;;;;;0.40;0.40;;;;;;;4.21;99.38;101798.63;5046309;28;20028;-62
2024/01/28 02:02:29;;;;;;;0.40;0.40;;;;;;;4.26;99.65;101800.50;5063963;28;20045;-62
2024/01/28 02:04:56;;;;;;;0.45;0.45;;;;;;;4.24;99.49;101805.59;5063846;28;20021;-62
2024/01/28 02:07:22;;;;;;;0.40;0.40;;;;;;;4.28;99.34;101809.16;5064095;28;20029;-62
2024/01/28 02:09:47;;;;;;;0.50;0.50;;;;;;;4.29;99.65;101809.22;5064232;28;20493;-62
2024/01/28 02:12:13;;;;;;;0.50;0.50;;;;;;;4.28;99.37;101806.59;5065062;28;20093;-61
2024/01/28 02:14:39;;;;;;;0.40;0.40;;;;;;;4.22;98.96;101794.34;5067837;28;20024;-62
2024/01/28 02:17:05;;;;;;;0.98;0.93;;;;;;;4.27;99.17;101804.81;5074674;23;20053;-64
2024/01/28 02:19:31;;;;;;;0.50;0.50;;;;;;;4.24;99.07;101808.16;5067957;28;20019;-63
2024/01/28 02:21:56;;;;;;;0.40;0.40;;;;;;;4.23;99.18;101806.41;5073714;23;20053;-62
2024/01/28 02:24:21;;;;;;;0.57;0.57;;;;;;;4.22;98.92;101810.66;5074116;23;20045;-63
2024/01/28 02:26:47;;;;;;;0.50;0.50;;;;;;;4.20;99.02;101811.44;5049574;28;20104;-64
2024/01/28 02:29:12;;;;;;;0.50;0.50;;;;;;;4.22;98.89;101812.34;5067493;28;20047;-62
2024/01/28 02:31:37;;;;;;;0.43;0.43;;;;;;;4.22;98.73;101809.78;5067463;28;20036;-62
2024/01/28 02:34:03;;;;;;;1.65;1.08;;;;;;;4.18;98.73;101801.09;5067633;28;20083;-63
2024/01/28 02:36:29;;;;;;;0.50;0.50;;;;;;;4.20;98.60;101801.16;5067154;28;20360;-63
2024/01/28 02:38:54;;;;;;;0.50;0.50;;;;;;;4.13;98.71;101793.97;5067498;28;20036;-63
2024/01/28 02:41:20;;;;;;;0.47;0.47;;;;;;;4.12;98.56;101797.38;5067462;28;20024;-63
2024/01/28 02:43:46;;;;;;;0.50;0.50;;;;;;;4.07;98.81;101799.75;5073445;22;20110;-62
2024/01/28 02:46:11;;;;;;;0.40;0.40;;;;;;;4.11;98.47;101800.75;5067391;28;20070;-63
2024/01/28 02:48:36;;;;;;;0.40;0.40;;;;;;;4.06;98.72;101795.41;5076441;22;20045;-63
2024/01/28 02:51:02;;;;;;;0.50;0.50;;;;;;;4.07;98.78;101782.63;5073389;23;20056;-65
2024/01/28 02:53:27;;;;;;;2.65;2.55;;;;;;;4.07;98.81;101784.34;5066849;28;20024;-65
2024/01/28 02:55:57;;;;;;;0.40;0.40;;;;;;;4.06;98.81;101795.41;5081185;22;20055;-62
2024/01/28 02:58:22;;;;;;;0.50;0.50;;;;;;;4.05;98.93;101788.53;5066659;28;20036;-62
2024/01/28 03:00:48;;;;;;;0.40;0.40;;;;;;;3.96;98.99;101765.91;5071843;22;20045;-63
2024/01/28 03:03:13;;;;;;;0.40;0.40;;;;;;;4.05;98.98;101774.00;5086913;22;20492;-63
2024/01/28 03:05:38;;;;;;;0.40;0.40;;;;;;;3.98;98.79;101777.13;5066261;28;20428;-63
2024/01/28 03:08:04;;;;;;;0.40;0.40;;;;;;;4.01;99.09;101772.09;5066665;28;20033;-63
2024/01/28 03:10:30;;;;;;;0.40;0.40;;;;;;;4.01;99.04;101768.66;5066632;28;20033;-63
2024/01/28 03:12:56;;;;;;;0.40;0.40;;;;;;;3.96;98.80;101766.78;5066708;28;20025;-63
2024/01/28 03:15:21;;;;;;;0.40;0.40;;;;;;;3.99;98.86;101768.63;5066676;28;20056;-63
2024/01/28 03:17:46;;;;;;;0.50;0.50;;;;;;;3.96;98.76;101745.34;5066921;28;20020;-63
2024/01/28 03:20:12;;;;;;;0.47;0.47;;;;;;;3.90;98.83;101755.38;5066553;28;20017;-63
2024/01/28 03:22:37;;;;;;;0.70;0.70;;;;;;;3.91;98.83;101770.88;5048366;28;20021;-64
2024/01/28 03:25:04;;;;;;;0.40;0.40;;;;;;;3.83;99.11;101757.69;5064433;28;20029;-62
2024/01/28 03:27:29;;;;;;;0.40;0.40;;;;;;;3.86;99.27;101769.78;5084926;22;20079;-62
2024/01/28 03:29:54;;;;;;;0.40;0.40;;;;;;;3.86;98.87;101762.09;5071552;23;20045;-63
2024/01/28 03:32:20;;;;;;;38.33;3.65;;;;;;;3.84;99.02;101763.72;5035798;23;20076;-65
2024/01/28 03:34:45;;;;;;;0.40;0.40;;;;;;;3.82;98.91;101760.19;5046351;28;20096;-65
2024/01/28 03:37:10;;;;;;;0.40;0.40;;;;;;;3.80;99.23;101766.97;5045977;28;20031;-64
2024/01/28 03:39:36;;;;;;;1.40;1.40;;;;;;;3.79;99.20;101763.50;5046533;28;20033;-64
2024/01/28 03:42:01;;;;;;;0.50;0.50;;;;;;;3.74;99.26;101765.00;5046008;28;20067;-64
2024/01/28 03:44:27;;;;;;;0.40;0.40;;;;;;;3.75;99.61;101761.66;5046110;28;20469;-65
2024/01/28 03:46:54;;;;;;;0.40;0.40;;;;;;;3.82;99.48;101784.19;5045880;28;20081;-64
2024/01/28 03:49:19;;;;;;;0.40;0.40;;;;;;;3.80;99.33;101779.81;5045991;28;20036;-65
2024/01/28 03:51:45;;;;;;;0.40;0.40;;;;;;;3.81;99.29;101777.31;5045903;28;20025;-65
2024/01/28 03:54:10;;;;;;;0.50;0.50;;;;;;;3.81;99.47;101784.13;5034886;23;20049;-63
2024/01/28 03:56:35;;;;;;;0.50;0.50;;;;;;;3.69;99.43;101754.53;5046157;28;20033;-63
2024/01/28 04:01:31;;;;;;;0.40;0.40;;;;;;;3.80;99.44;101766.97;5043857;28;20049;-64
2024/01/28 04:03:57;;;;;;;0.40;0.40;;;;;;;3.82;99.27;101778.16;5045744;23;20059;-64
2024/01/28 04:06:23;;;;;;;0.40;0.40;;;;;;;3.79;99.25;101778.03;5065542;28;20109;-64
2024/01/28 04:08:49;;;;;;;0.40;0.40;;;;;;;3.74;99.07;101777.00;5065778;28;20028;-68
2024/01/28 04:11:14;;;;;;;0.45;0.45;;;;;;;3.67;99.42;101776.75;5047569;28;20052;-68
2024/01/28 04:13:40;;;;;;;0.50;0.50;;;;;;;3.64;99.15;101783.44;5047635;28;20017;-69
2024/01/28 04:16:05;;;;;;;0.40;0.40;;;;;;;3.59;99.22;101778.94;5065519;28;20032;-69
2024/01/28 04:18:31;;;;;;;0.45;0.45;;;;;;;3.64;99.53;101781.75;5069366;23;20460;-63
2024/01/28 04:20:56;;;;;;;0.40;0.40;;;;;;;3.68;99.93;101769.88;5027314;28;20022;-63
2024/01/28 04:23:22;;;;;;;1.05;1.05;;;;;;;3.74;100.00;101772.72;5045465;28;20025;-63
2024/01/28 04:28:38;;;;;;;0.50;0.50;;;;;;;3.77;99.99;101764.28;5064908;28;20047;-63
2024/01/28 04:31:03;;;;;;;0.63;0.63;;;;;;;3.79;99.81;101765.19;5070642;22;20420;-63
2024/01/28 04:33:29;;;;;;;0.40;0.40;;;;;;;3.81;99.94;101777.31;5065001;28;20021;-63
2024/01/28 04:35:54;;;;;;;0.50;0.50;;;;;;;3.81;99.71;101787.59;5046912;28;20020;-63
2024/01/28 04:38:20;;;;;;;2.22;2.08;;;;;;;3.84;99.63;101798.00;5065070;28;20025;-62
2024/01/28 04:40:45;;;;;;;0.43;0.43;;;;;;;3.84;99.57;101794.53;5064966;28;20033;-63
2024/01/28 04:43:11;;;;;;;0.50;0.50;;;;;;;3.88;99.65;101785.28;5046940;28;20021;-63
2024/01/28 04:45:37;;;;;;;0.47;0.47;;;;;;;3.88;99.40;101795.56;5065260;28;20024;-63
2024/01/28 04:48:02;;;;;;;0.50;0.50;;;;;;;3.85;99.54;101788.56;5065000;28;20409;-64
2024/01/28 04:50:27;;;;;;;0.50;0.50;;;;;;;3.88;99.91;101799.00;5064848;28;20032;-63
2024/01/28 04:52:53;;;;;;;0.50;0.50;;;;;;;3.94;99.52;101808.66;5064949;28;20069;-63
2024/01/28 04:55:18;;;;;;;0.50;0.50;;;;;;;3.92;99.45;101800.88;5065056;28;20438;-63
2024/01/28 04:57:43;;;;;;;0.50;0.50;;;;;;;3.92;99.49;101808.59;5064822;28;20032;-63
2024/01/28 05:00:14;;;;;;;0.45;0.45;;;;;;;3.90;99.61;101797.34;5046817;28;20013;-63
2024/01/28 05:02:39;;;;;;;0.50;0.50;;;;;;;3.95;99.59;101811.28;5064815;28;20469;-63
2024/01/28 05:05:05;;;;;;;0.40;0.40;;;;;;;3.97;99.18;101811.34;5071400;23;20118;-63
2024/01/28 05:07:30;;;;;;;0.40;0.40;;;;;;;3.96;99.01;101813.03;5067663;23;20541;-63
2024/01/28 05:09:58;;;;;;;0.43;0.43;;;;;;;3.76;99.14;101762.50;5069412;23;20045;-68
2024/01/28 05:12:23;;;;;;;0.50;0.50;;;;;;;3.96;99.18;101795.03;5041868;28;20052;-63
2024/01/28 05:14:49;;;;;;;0.50;0.50;;;;;;;3.97;98.82;101794.25;5026973;28;20021;-64
2024/01/28 05:17:14;;;;;;;0.50;0.50;;;;;;;3.96;98.81;101797.63;5026975;28;20025;-63
2024/01/28 05:19:40;;;;;;;0.40;0.40;;;;;;;3.96;98.75;101787.34;5027163;28;20060;-63
2024/01/28 05:22:05;;;;;;;0.50;0.50;;;;;;;3.96;98.42;101781.34;5026406;28;20533;-63
2024/01/28 05:24:31;;;;;;;0.50;0.50;;;;;;;3.97;98.40;101786.53;5043250;28;20056;-63
2024/01/28 05:26:56;;;;;;;0.40;0.40;;;;;;;3.98;98.83;101784.81;5044690;28;20024;-63
2024/01/28 05:29:22;;;;;;;0.40;0.40;;;;;;;3.99;98.41;101785.72;5026463;28;20049;-63
2024/01/28 05:31:48;;;;;;;0.50;0.50;;;;;;;3.99;98.14;101801.13;5026689;28;20028;-63
2024/01/28 05:34:13;;;;;;;0.50;0.50;;;;;;;3.96;98.73;101796.75;5044714;28;20030;-63
2024/01/28 05:36:40;;;;;;;16.75;5.55;;;;;;;3.97;98.07;101793.34;5026834;28;20456;-63
2024/01/28 05:39:05;;;;;;;0.50;0.50;;;;;;;3.95;98.25;101787.28;5045036;28;20101;-62
2024/01/28 05:41:31;;;;;;;0.50;0.50;;;;;;;3.92;97.99;101797.41;5026812;28;20037;-62
2024/01/28 05:43:56;;;;;;;0.50;0.50;;;;;;;3.78;97.84;101774.63;5074158;23;20045;-62
2024/01/28 05:46:22;;;;;;;14.35;9.60;;;;;;;3.86;97.54;101795.50;5069974;22;20049;-63
2024/01/28 05:48:47;;;;;;;0.40;0.40;;;;;;;3.85;97.55;101798.84;5074653;23;20056;-62
2024/01/28 05:51:13;;;;;;;0.50;0.50;;;;;;;3.88;97.74;101803.25;5068214;28;20013;-62
2024/01/28 05:53:38;;;;;;;1.58;1.52;;;;;;;3.86;98.06;101807.44;5068332;28;20397;-63
2024/01/28 05:56:04;;;;;;;0.40;0.40;;;;;;;3.85;97.76;101811.69;5068478;28;20028;-63
2024/01/28 05:58:29;;;;;;;0.43;0.43;;;;;;;3.80;98.00;101798.66;5068055;28;20039;-62
2024/01/28 06:00:54;;;;;;;0.40;0.40;;;;;;;3.80;97.96;101792.66;5084600;23;20064;-63
2024/01/28 06:03:20;;;;;;;0.50;0.50;;;;;;;3.78;97.64;101804.56;5066317;28;20016;-63
2024/01/28 06:05:45;;;;;;;0.40;0.40;;;;;;;3.79;97.93;101807.19;5066427;28;20032;-63
2024/01/28 06:08:10;;;;;;;0.50;0.50;;;;;;;3.75;97.72;101807.88;5048186;28;20033;-63
2024/01/28 06:10:36;;;;;;;0.40;0.40;;;;;;;3.76;97.97;101807.06;5066144;28;20021;-64
2024/01/28 06:13:01;;;;;;;0.40;0.40;;;;;;;3.76;97.94;101822.47;5065882;28;20021;-62
2024/01/28 06:15:27;;;;;;;0.50;0.50;;;;;;;3.71;97.88;101824.84;5047942;28;20021;-63
2024/01/28 06:17:53;;;;;;;0.50;0.50;;;;;;;3.70;97.89;101827.34;5065924;28;20028;-63
2024/01/28 06:20:18;;;;;;;0.40;0.40;;;;;;;3.68;98.01;101827.28;5066030;28;20056;-63
2024/01/28 06:22:44;;;;;;;0.60;0.60;;;;;;;3.77;98.24;101834.50;5047775;28;20032;-62
2024/01/28 06:25:09;;;;;;;0.40;0.40;;;;;;;3.76;98.08;101819.91;5065847;28;20025;-63
2024/01/28 06:27:35;;;;;;;1.75;1.65;;;;;;;3.71;98.23;101826.53;5055723;23;20053;-63
2024/01/28 06:30:00;;;;;;;0.40;0.40;;;;;;;3.69;98.23;101834.16;5078438;22;20023;-62
2024/01/28 06:32:25;;;;;;;0.45;0.45;;;;;;;3.63;98.24;101821.06;5049636;28;20105;-64
2024/01/28 06:34:51;;;;;;;0.50;0.50;;;;;;;3.66;98.24;101839.19;5067232;28;20559;-63
2024/01/28 06:37:18;;;;;;;0.40;0.40;;;;;;;3.68;98.36;101836.66;5066290;28;20078;-63
2024/01/28 06:39:43;;;;;;;0.50;0.50;;;;;;;3.66;98.40;101843.47;5063412;28;20028;-62
2024/01/28 06:42:09;;;;;;;0.40;0.40;;;;;;;3.74;98.25;101856.63;5067092;28;20013;-63
2024/01/28 06:44:36;;;;;;;0.80;0.80;;;;;;;3.77;98.42;101844.78;5067309;28;20044;-63
2024/01/28 06:47:02;;;;;;;0.50;0.50;;;;;;;3.75;98.16;101835.25;5067216;28;20043;-62
2024/01/28 06:49:27;;;;;;;0.40;0.40;;;;;;;3.75;98.20;101840.38;5067246;28;20025;-63
2024/01/28 06:51:53;;;;;;;0.50;0.50;;;;;;;3.75;98.20;101837.81;5048706;28;20531;-63
2024/01/28 06:54:24;;;;;;;0.50;0.50;;;;;;;3.78;98.04;101831.13;5067275;28;20084;-63
2024/01/28 06:56:49;;;;;;;0.40;0.40;;;;;;;3.83;98.17;101828.75;5067163;28;20025;-63
2024/01/28 06:59:15;;;;;;;0.40;0.40;;;;;;;3.85;97.99;101816.84;5050543;23;20068;-63
2024/01/28 07:01:40;;;;;;;0.47;0.47;;;;;;;3.82;97.87;101809.88;5046988;28;20025;-63
2024/01/28 07:04:06;;;;;;;0.40;0.40;;;;;;;3.79;97.71;101803.72;5047352;28;20038;-63
2024/01/28 07:06:31;;;;;;;0.40;0.40;;;;;;;3.80;97.53;101820.91;5061979;23;20068;-62
2024/01/28 07:08:57;;;;;;;0.50;0.50;;;;;;;3.80;97.50;101820.91;5066615;28;20025;-62
2024/01/28 07:11:22;;;;;;;0.40;0.40;;;;;;;3.81;97.36;101825.22;5061757;23;20021;-63
2024/01/28 07:14:25;;;;;;;0.40;0.40;;;;;;;3.87;97.61;101822.03;5076037;23;20124;-63
2024/01/28 07:16:51;;;;;;;0.50;0.50;;;;;;;3.87;97.05;101819.47;5078650;23;20045;-63
2024/01/28 07:19:16;;;;;;;0.55;0.55;;;;;;;3.88;97.17;101806.72;5048814;28;20117;-63
2024/01/28 07:21:42;;;;;;;0.40;0.40;;;;;;;3.81;96.99;101785.03;5066229;28;20378;-63
2024/01/28 07:24:08;;;;;;;0.50;0.50;;;;;;;3.84;97.34;101781.69;5066587;28;20025;-62
2024/01/28 07:26:34;;;;;;;0.40;0.40;;;;;;;3.81;96.54;101782.44;5048622;28;20025;-63
2024/01/28 07:29:00;;;;;;;0.50;0.50;;;;;;;3.80;96.62;101778.09;5066405;28;20024;-63
2024/01/28 07:31:25;;;;;;;0.50;0.50;;;;;;;3.82;96.91;101783.31;5072564;23;20053;-63
2024/01/28 07:33:50;;;;;;;0.40;0.40;;;;;;;3.84;96.65;101794.53;5048241;28;20172;-63
2024/01/28 07:36:16;;;;;;;0.70;0.70;;;;;;;3.87;96.73;101806.63;5066133;28;20041;-63
2024/01/28 07:38:42;;;;;;;0.50;0.50;;;;;;;3.88;96.42;101811.84;5072780;23;20008;-63
2024/01/28 07:41:14;;;;;;;0.50;0.50;;;;;;;3.94;96.65;101816.34;5072408;23;20040;-64
2024/01/28 07:43:42;;;;;;;0.47;0.47;;;;;;;3.95;96.19;101816.41;5064864;28;20024;-65
2024/01/28 07:46:09;;;;;;;0.40;0.40;;;;;;;3.94;96.38;101822.38;5064760;28;20028;-64
2024/01/28 07:48:35;;;;;;;2.97;2.88;;;;;;;3.97;96.14;101843.06;5029659;23;1147755;-63
2024/01/28 07:51:00;;;;;;;0.40;0.40;;;;;;;4.01;96.21;101844.06;5096745;23;20041;-64
2024/01/28 07:53:25;;;;;;;1.95;1.85;;;;;;;4.05;95.95;101848.53;5065875;28;20018;-64
2024/01/28 07:55:51;;;;;;;6.03;4.35;;;;;;;4.04;96.16;101844.19;5065569;28;20021;-65
2024/01/28 07:58:16;;;;;;;0.40;0.40;;;;;;;4.03;96.08;101823.56;5047764;28;20032;-64
2024/01/28 08:00:42;;;;;;;0.40;0.40;;;;;;;4.13;96.00;101851.41;5065802;28;20024;-64
2024/01/28 08:03:07;;;;;;;0.43;0.43;;;;;;;4.05;95.88;101837.38;5064227;22;20132;-63
2024/01/28 08:05:33;;;;;;;0.50;0.50;;;;;;;4.14;95.63;101836.88;5047662;28;20033;-63
2024/01/28 08:07:58;;;;;;;0.50;0.50;;;;;;;4.11;95.32;101837.63;5047074;28;20017;-63
2024/01/28 08:10:24;;;;;;;0.50;0.50;;;;;;;4.11;95.63;101853.03;5075527;22;20087;-64
2024/01/28 08:12:50;;;;;;;1.45;1.38;;;;;;;4.07;95.37;101851.16;5047420;28;20032;-64
2024/01/28 08:15:15;;;;;;;0.50;0.50;;;;;;;4.12;95.31;101843.66;5065333;28;20445;-63
2024/01/28 08:17:41;;;;;;;4.57;4.32;;;;;;;4.11;95.64;101847.91;5064908;28;20062;-64
2024/01/28 08:20:07;;;;;;;0.45;0.45;;;;;;;4.18;94.95;101849.03;5065501;28;20566;-64
2024/01/28 08:22:33;;;;;;;0.85;0.85;;;;;;;4.22;95.23;101848.34;5065016;28;20477;-64
2024/01/28 08:24:58;;;;;;;0.40;0.40;;;;;;;4.24;95.25;101838.13;5065627;28;20051;-64
2024/01/28 08:27:23;;;;;;;2.47;2.28;;;;;;;4.28;94.75;101829.72;5064177;28;20075;-63
2024/01/28 08:29:49;;;;;;;0.40;0.40;;;;;;;4.22;94.48;101825.19;5044618;28;20028;-64
2024/01/28 08:32:14;;;;;;;0.50;0.50;;;;;;;4.13;93.96;101820.56;5064159;28;20025;-64
2024/01/28 08:34:40;;;;;;;0.50;0.50;;;;;;;4.21;93.75;101844.91;5083992;23;20690;-69
2024/01/28 08:37:05;;;;;;;0.40;0.40;;;;;;;4.19;94.16;101849.09;5081115;23;20044;-65
2024/01/28 08:39:30;;;;;;;0.50;0.50;;;;;;;4.20;93.70;101848.28;5065263;28;20029;-65
2024/01/28 08:41:56;;;;;;;0.50;0.50;;;;;;;4.21;94.35;101838.88;5064013;28;20432;-64
2024/01/28 08:44:22;;;;;;;0.50;0.50;;;;;;;4.22;94.38;101830.34;5064154;28;20033;-65
2024/01/28 08:46:47;;;;;;;0.40;0.40;;;;;;;4.20;93.97;101843.13;5066536;23;20116;-64
2024/01/28 08:49:13;;;;;;;0.40;0.40;;;;;;;4.15;94.20;101839.53;5064795;28;20021;-64
2024/01/28 08:51:39;;;;;;;0.45;0.45;;;;;;;4.22;93.74;101845.75;5046839;28;20067;-63
2024/01/28 08:54:05;;;;;;;0.40;0.40;;;;;;;4.19;94.07;101845.63;5064906;28;20108;-64
2024/01/28 08:56:30;;;;;;;0.50;0.50;;;;;;;4.24;94.13;101841.56;5064900;28;20021;-63
2024/01/28 08:58:56;;;;;;;0.40;0.40;;;;;;;4.22;93.78;101828.66;5071542;22;20382;-64
2024/01/28 09:01:21;;;;;;;2.50;2.33;;;;;;;4.24;93.49;101843.25;5064227;28;20013;-64
2024/01/28 09:03:47;;;;;;;0.50;0.50;;;;;;;4.19;93.12;101845.63;5064562;28;20032;-64
2024/01/28 09:06:12;;;;;;;0.43;0.43;;;;;;;4.26;93.22;101846.78;5063768;28;20032;-65
2024/01/28 09:08:37;;;;;;;0.40;0.40;;;;;;;4.22;93.14;101838.06;5064476;28;20043;-65
2024/01/28 09:11:03;;;;;;;0.40;0.40;;;;;;;4.19;93.34;101832.78;5063350;23;20049;-65
2024/01/28 09:13:31;;;;;;;0.50;0.50;;;;;;;4.19;92.89;101835.34;5062717;28;20075;-66
2024/01/28 09:15:57;;;;;;;0.50;0.50;;;;;;;4.15;93.34;101818.06;5046367;28;20021;-65
2024/01/28 09:18:22;;;;;;;0.50;0.50;;;;;;;4.24;93.35;101830.41;5072524;23;20060;-61
2024/01/28 09:20:47;;;;;;;0.50;0.50;;;;;;;4.24;92.88;101823.56;5083873;23;20132;-64
2024/01/28 09:23:13;;;;;;;0.50;0.50;;;;;;;4.29;93.05;101829.78;5067297;23;20056;-62
2024/01/28 09:25:39;;;;;;;0.50;0.50;;;;;;;4.25;93.14;101834.75;5075253;23;20037;-65
2024/01/28 09:28:05;;;;;;;0.40;0.40;;;;;;;4.19;92.77;101836.25;5056152;23;20057;-63
2024/01/28 09:30:30;;;;;;;0.50;0.50;;;;;;;4.18;92.18;101854.19;5069057;23;20056;-63
2024/01/28 09:32:56;;;;;;;0.43;0.43;;;;;;;4.18;92.49;101857.63;5073418;23;20073;-65
2024/01/28 09:35:21;;;;;;;0.50;0.50;;;;;;;4.16;92.82;101851.53;5048594;28;20013;-65
2024/01/28 09:37:46;;;;;;;0.50;0.50;;;;;;;4.18;92.16;101877.31;5067760;28;20033;-65
2024/01/28 09:40:13;;;;;;;0.45;0.45;;;;;;;4.17;92.30;101868.72;5068667;28;20025;-65
2024/01/28 09:43:03;;;;;;;0.40;0.40;;;;;;;4.19;91.96;101855.91;5067795;28;20084;-65
2024/01/28 09:45:30;;;;;;;0.47;0.47;;;;;;;4.17;92.00;101855.00;5068180;28;20043;-65
2024/01/28 09:50:58;;;;;;;0.50;0.50;;;;;;;4.18;91.43;101861.88;5046304;28;20061;-65
2024/01/28 09:53:23;;;;;;;0.50;0.50;;;;;;;4.18;91.34;101869.59;5047929;28;20033;-65
2024/01/28 09:55:48;;;;;;;0.50;0.50;;;;;;;4.20;91.91;101871.41;5048201;28;20029;-64
2024/01/28 09:58:15;;;;;;;0.50;0.50;;;;;;;4.20;91.94;101867.97;5048223;28;20272;-65
2024/01/28 10:00:41;;;;;;;1.08;1.08;;;;;;;4.18;91.69;101873.06;5047910;28;20030;-65
2024/01/28 10:03:07;;;;;;;0.50;0.50;;;;;;;4.20;91.39;101857.69;5047950;28;20026;-65
2024/01/28 10:05:32;;;;;;;0.50;0.50;;;;;;;4.19;91.78;101856.81;5058611;22;20053;-62
2024/01/28 10:08:01;;;;;;;0.50;0.50;;;;;;;4.24;91.90;101861.25;5065821;23;20056;-62
2024/01/28 10:10:26;;;;;;;0.50;0.50;;;;;;;4.26;91.85;101854.50;5075936;22;20052;-64
2024/01/28 10:12:52;;;;;;;0.40;0.40;;;;;;;4.28;92.29;101855.44;5061456;23;20045;-65
2024/01/28 10:15:23;;;;;;;0.43;0.43;;;;;;;4.31;91.71;101847.84;5067923;28;20057;-64
2024/01/28 10:17:49;;;;;;;0.60;0.60;;;;;;;4.32;91.39;101853.06;5067803;28;20066;-65
2024/01/28 10:20:25;;;;;;;0.50;0.50;;;;;;;4.30;92.06;101843.50;5067800;28;20029;-65
2024/01/28 10:22:51;;;;;;;4.22;3.50;;;;;;;4.28;92.23;101832.31;5067346;28;20021;-65
2024/01/28 10:25:17;;;;;;;0.40;0.40;;;;;;;4.42;92.25;101858.56;5067490;28;20028;-64
2024/01/28 10:27:43;;;;;;;0.43;0.43;;;;;;;4.45;92.62;101856.13;5049496;28;20056;-64
2024/01/28 10:30:14;;;;;;;0.50;0.50;;;;;;;4.40;92.12;101863.66;5067249;28;20029;-64
2024/01/28 10:32:41;;;;;;;0.50;0.50;;;;;;;4.37;91.83;101866.09;5065936;28;20013;-65
2024/01/28 10:35:10;;;;;;;1.30;1.30;;;;;;;4.42;91.99;101866.28;5067057;28;20025;-64
2024/01/28 10:37:36;;;;;;;0.40;0.40;;;;;;;4.36;91.65;101863.47;5067061;28;20025;-65
2024/01/28 10:40:07;;;;;;;7.13;4.32;;;;;;;4.41;91.14;101865.41;5072746;22;20055;-62
2024/01/28 10:42:42;;;;;;;0.50;0.50;;;;;;;4.37;91.16;101867.78;5049298;28;20499;-61
2024/01/28 10:45:09;;;;;;;0.45;0.45;;;;;;;4.33;91.41;101853.91;5049316;28;20025;-62
2024/01/28 10:47:37;;;;;;;0.50;0.50;;;;;;;4.40;91.40;101860.19;5073634;23;20028;-64
2024/01/28 10:50:08;;;;;;;0.50;0.50;;;;;;;4.27;91.15;101836.56;5075702;23;20028;-64
2024/01/28 10:52:36;;;;;;;0.90;0.90;;;;;;;4.34;90.72;101835.13;5046455;28;20025;-65
2024/01/28 10:55:03;;;;;;;0.50;0.50;;;;;;;4.33;90.62;101847.09;5051913;23;20249;-63
2024/01/28 10:57:31;;;;;;;0.50;0.50;;;;;;;4.32;91.04;101834.16;5070121;23;20535;-66
2024/01/28 10:59:59;;;;;;;0.50;0.50;;;;;;;4.32;89.96;101855.63;5057231;23;20057;-63
2024/01/28 11:04:55;;;;;;;0.40;0.40;;;;;;;4.26;89.91;101837.38;5005117;28;20545;-72
2024/01/28 11:07:21;;;;;;;0.50;0.50;;;;;;;4.33;89.87;101828.19;5006996;28;20023;-71
2024/01/28 11:09:48;;;;;;;0.43;0.43;;;;;;;4.43;89.62;101824.31;5006964;28;20109;-65
2024/01/28 11:12:14;;;;;;;0.50;0.50;;;;;;;4.37;89.15;101824.06;5038548;23;20191;-62
2024/01/28 11:14:39;;;;;;;0.50;0.50;;;;;;;4.39;89.13;101828.47;5028855;28;20025;-62
2024/01/28 11:17:04;;;;;;;0.40;0.40;;;;;;;4.37;89.66;101826.63;5046302;28;20475;-62
2024/01/28 11:22:16;;;;;;;0.50;0.50;;;;;;;4.34;89.56;101820.53;5070539;23;20052;-67
2024/01/28 11:24:51;;;;;;;0.50;0.50;;;;;;;4.29;89.92;101816.94;5064372;28;20120;-67
2024/01/28 11:27:19;;;;;;;0.50;0.50;;;;;;;4.31;90.21;101824.72;5071899;23;20049;-63
2024/01/28 11:29:45;;;;;;;0.80;0.80;;;;;;;4.37;90.44;101813.78;5066081;28;20017;-63
2024/01/28 11:32:12;;;;;;;0.40;0.40;;;;;;;4.44;90.50;101816.66;5066127;28;20045;-62
2024/01/28 11:34:37;;;;;;;0.47;0.47;;;;;;;4.45;90.66;101822.69;5072845;23;21701;-64
2024/01/28 11:37:04;;;;;;;0.50;0.50;;;;;;;4.45;90.32;101822.69;5072207;23;20041;-63
2024/01/28 11:39:37;;;;;;;0.70;0.70;;;;;;;4.51;90.46;101824.63;5054383;23;20413;-66
2024/01/28 11:42:03;;;;;;;0.40;0.40;;;;;;;4.49;90.13;101839.13;5066013;28;20021;-66
2024/01/28 11:44:28;;;;;;;0.50;0.50;;;;;;;4.52;90.51;101823.81;5065809;28;20461;-65
2024/01/28 11:46:55;;;;;;;0.50;0.50;;;;;;;4.52;90.03;101831.53;5066185;28;20043;-65